Station: Tewantin  

  Atmospheric Gas Attenuation - ITU Rec 676-11   ----------------- dB/100km -----------------
Date Time Temp RH % AH g/m3 Dew Point Wind Direction Speed kph Gust kph Barometer mB Rainfall Since 9am 24GHz 47GHz 76GHz 122GHz 134GHz 241GHz
08/05 12:30 21.2 33 6.12 4.3 9 13 1018.7 0 14.0 20.5 27.9 72.7 61.5 210.1
08/05 12:20 21.1 35 6.45 5.1 11 15 1018.9 0 14.7 21.0 29.0 75.7 65.3 223.1
08/05 12:10 21.2 31 5.74 3.4 11 13 1019.1 0 13.3 20.1 26.7 69.4 57.4 195.6
08/05 12:00 20.9 32 5.83 3.6 7 13 1019.4 0 13.4 20.2 27.1 70.4 58.6 199.8
08/05 11:50 20.7 34 6.12 4.3 13 19 1019.4 0 14.1 20.7 28.1 73.2 62.0 211.5
08/05 11:40 20.7 39 7.02 6.3 9 13 1019.4 0 15.9 21.9 31.1 81.4 72.0 246.9
08/05 11:30 20.6 35 6.26 4.6 11 19 1019.7 0 14.4 20.9 28.6 74.5 63.6 217.2
08/05 11:20 20.5 38 6.76 5.7 11 13 1019.7 0 15.4 21.6 30.3 79.2 69.3 237.2
08/05 11:10 20.6 39 6.98 6.2 11 15 1019.9 0 15.9 21.9 31.1 81.1 71.7 245.7
08/05 11:00 20.5 41 7.29 6.8 13 20 1020.1 0 16.5 22.4 32.2 84.1 75.4 258.5
08/05 10:50 20.4 45 7.96 8.1 13 17 1020.2 0 17.9 23.4 34.6 90.6 83.3 286.4
08/05 10:40 20.1 41 7.13 6.4 9 11 1020.2 0 16.2 22.2 31.8 83.0 73.9 253.3
08/05 10:30 20.1 42 7.3 6.8 13 20 1020.5 0 16.6 22.5 32.4 84.7 75.9 260.3
08/05 10:20 20 38 6.57 5.3 15 19 1020.6 0 15.0 21.5 29.9 78.0 67.6 231.2
08/05 10:10 19.8 37 6.32 4.7 15 19 1020.6 0 14.5 21.2 29.1 75.9 65.0 221.9
08/05 10:00 19.8 41 7 6.2 11 19 1020.7 0 15.9 22.2 31.5 82.2 72.7 249.1
08/05 09:50 19.7 46 7.81 7.8 11 15 1020.5 0 17.6 23.3 34.4 90.0 82.3 282.7
08/05 09:40 19.3 39 6.47 5 15 20 1020.7 0 14.8 21.5 29.8 77.7 67.1 229.2
08/05 09:30 18.9 46 7.45 7 13 20 1020.9 0 16.9 23.0 33.4 87.4 78.8 270.5
08/05 09:20 18.8 44 7.09 6.3 7 11 1020.6 0 16.2 22.5 32.2 84.0 74.7 255.8
08/05 09:10 18.2 44 6.84 5.8 11 13 1020.6 0 15.7 22.3 31.5 82.3 72.3 247.4
08/05 09:00 18 43 6.6 5.2 11 19 1020.7 0 15.2 22.0 30.7 80.2 69.7 238.2
08/05 08:50 17.5 47 7.01 6.1 11 17 1020.4 0 16.0 22.7 32.4 84.6 74.9 256.6
08/05 08:40 17.1 45 6.55 5.1 13 15 1020.5 0 15.1 22.1 30.9 80.6 69.8 238.7
08/05 08:30 16.9 48 6.9 5.8 11 19 1020.6 0 15.8 22.7 32.2 84.2 74.2 253.9
08/05 08:20 16.4 52 7.26 6.5 11 13 1020.6 0 16.6 23.4 33.8 88.2 79.0 270.8
08/05 08:10 15.8 53 7.13 6.3 13 19 1020.5 0 16.4 23.3 33.5 87.6 78.0 267.2
08/05 08:00 15 55 7.05 6 9 15 1020.5 0 16.2 23.4 33.6 87.7 77.8 266.4
08/05 07:50 15.5 57 7.53 7 7 9 1020.3 0 17.2 24.0 35.1 91.9 83.2 285.5
08/05 07:40 14.9 57 7.26 6.5 7 9 1020.3 0 16.7 23.7 34.4 89.9 80.5 275.8
08/05 07:30 14.1 63 7.65 7.2 2 7 1020.2 0 17.5 24.6 36.2 94.8 86.3 295.9
08/05 07:20 13.6 64 7.53 6.9 7 7 1020.1 0 17.3 24.5 36.0 94.1 85.3 292.4
08/05 07:10 12.8 65 7.28 6.4 4 6 1020.1 0 16.8 24.3 35.4 92.5 82.9 284.0
08/05 07:00 12.6 67 7.41 6.6 0 4 1019.9 0 17.1 24.6 35.9 94.0 84.8 290.6
08/05 06:50 12.2 70 7.55 6.9 0 0 1019.7 0 17.4 24.9 36.7 96.0 87.0 298.4
08/05 06:40 11.9 72 7.63 7 0 0 1019.4 0 17.6 25.1 37.1 97.1 88.4 303.1
08/05 06:30 11.6 75 7.8 7.3 0 0 1019.5 0 18.0 25.5 37.9 99.4 91.0 312.2
08/05 06:20 11.3 76 7.75 7.2 0 0 1019.3 0 17.9 25.5 37.9 99.2 90.7 311.0
08/05 06:10 11.5 75 7.75 7.2 0 0 1019.2 0 17.9 25.4 37.8 98.9 90.4 310.2
08/05 06:00 11.6 72 7.48 6.7 0 0 1019.1 0 17.3 24.9 36.6 95.9 86.7 297.3
08/05 05:50 11.8 68 7.16 6.1 0 0 1018.9 0 16.6 24.4 35.3 92.3 82.3 281.9
08/05 05:40 11.9 70 7.41 6.6 0 0 1018.9 0 17.1 24.7 36.2 94.8 85.5 292.9
08/05 05:30 12 70 7.46 6.7 0 0 1018.9 0 17.2 24.8 36.4 95.2 86.0 294.8
08/05 05:20 12.3 71 7.71 7.2 0 0 1018.7 0 17.8 25.1 37.2 97.4 88.9 305.1
08/05 05:10 12.5 66 7.26 6.3 6 7 1018.4 0 16.8 24.3 35.3 92.4 82.9 283.8
08/05 05:00 13 67 7.6 7 4 9 1018.3 0 17.5 24.7 36.4 95.4 86.7 297.3
08/05 04:50 13.1 61 6.96 5.8 6 7 1018.1 0 16.1 23.7 33.9 88.6 78.4 268.3
08/05 04:40 13.3 61 7.05 5.9 6 7 1017.9 0 16.3 23.8 34.2 89.3 79.3 271.6
08/05 04:30 13.6 59 6.94 5.7 6 7 1017.9 0 16.1 23.5 33.6 87.9 77.7 265.7
08/05 04:20 13.9 56 6.71 5.3 6 7 1017.8 0 15.6 23.1 32.6 85.2 74.5 254.7
08/05 04:10 14.4 54 6.68 5.2 6 7 1017.5 0 15.5 22.9 32.3 84.4 73.6 251.8
08/05 04:00 14.5 55 6.84 5.6 7 11 1017.4 0 15.8 23.1 32.8 85.8 75.5 258.3
08/05 03:50 14.8 53 6.71 5.3 7 9 1017.4 0 15.5 22.8 32.2 84.2 73.6 251.8
08/05 03:40 15 52 6.67 5.2 9 11 1017.2 0 15.4 22.7 32.0 83.6 73.0 249.4
08/05 03:30 15.2 53 6.88 5.7 9 17 1017.1 0 15.9 23.0 32.7 85.5 75.3 257.7
08/05 03:20 15.5 50 6.61 5.1 13 17 1017 0 15.3 22.5 31.6 82.5 71.8 245.3
08/05 03:10 15.5 52 6.87 5.7 9 13 1017.5 0 15.8 22.9 32.6 85.1 74.9 256.4
08/05 03:00 15.8 49 6.6 5.1 9 19 1017.2 0 15.3 22.4 31.4 82.1 71.4 244.0
08/05 02:50 15.8 51 6.86 5.7 11 15 1017.3 0 15.8 22.8 32.4 84.6 74.5 255.0
08/05 02:40 15.9 51 6.91 5.8 13 17 1017.5 0 15.9 22.9 32.5 85.1 75.0 256.8
08/05 02:30 16.2 51 7.03 6.1 11 22 1017.4 0 16.1 23.0 32.9 85.9 76.2 260.9
08/05 02:20 16.4 51 7.12 6.2 15 20 1017.2 0 16.3 23.0 33.1 86.5 77.1 264.1
08/05 02:10 16.2 56 7.72 7.4 7 9 1017.3 0 17.6 24.0 35.4 92.7 84.6 290.6
08/05 02:00 16.3 59 8.19 8.3 9 17 1017.6 0 18.6 24.7 37.2 97.4 90.4 310.9
08/05 01:50 16.9 53 7.62 7.3 9 13 1017.4 0 17.4 23.7 34.7 90.9 82.7 283.8
08/05 01:40 16.9 54 7.77 7.5 13 17 1017.5 0 17.7 23.9 35.3 92.5 84.5 290.2
08/05 01:30 16.8 56 8.01 8 9 13 1017.7 0 18.2 24.3 36.3 95.0 87.6 301.1
08/05 01:20 17 54 7.81 7.6 7 9 1017.7 0 17.8 23.9 35.4 92.8 84.9 291.6
08/05 01:10 17 56 8.1 8.2 6 7 1017.7 0 18.4 24.4 36.5 95.7 88.5 304.2
08/05 01:00 17.1 57 8.3 8.5 9 13 1017.6 0 18.8 24.7 37.2 97.6 90.9 312.6
08/05 00:50 17.3 56 8.25 8.4 9 11 1017.7 0 18.7 24.5 36.9 96.8 90.0 309.6
08/05 00:40 17.4 55 8.15 8.3 11 13 1017.7 0 18.5 24.3 36.5 95.7 88.7 304.9
08/05 00:30 17.2 57 8.35 8.6 9 15 1017.9 0 18.9 24.7 37.4 98.0 91.4 314.5
08/05 00:20 17.5 57 8.5 8.9 7 11 1017.6 0 19.2 24.8 37.8 99.1 92.9 319.8
08/05 00:10 17.6 59 8.85 9.5 9 11 1017.7 0 19.9 25.4 39.1 102.6 97.2 334.9
08/05 00:00 17.7 56 8.45 8.8 4 7 1017.8 0 19.1 24.7 37.5 98.4 92.1 316.8
07/05 23:50 17.7 56 8.45 8.8 2 6 1017.6 0 19.1 24.7 37.5 98.3 92.1 316.8
07/05 23:40 18 52 7.99 8 0 0 1017.6 0 18.1 23.9 35.7 93.4 86.0 295.7
07/05 23:30 18.2 52 8.08 8.2 0 7 1017.6 0 18.3 24.0 35.9 94.0 86.9 298.8
07/05 23:20 18.3 52 8.13 8.3 0 0 1017.5 0 18.4 24.1 36.0 94.4 87.4 300.6
07/05 23:10 18.9 49 7.94 8 9 11 1017.5 0 17.9 23.6 35.1 91.8 84.5 290.3
07/05 23:00 18.7 53 8.48 8.9 9 11 1017.5 0 19.1 24.5 37.2 97.4 91.3 314.1
07/05 22:50 18.8 50 8.05 8.2 7 7 1017.5 0 18.2 23.8 35.5 93.0 85.9 295.3
07/05 22:40 18.6 56 8.91 9.7 6 7 1017.6 0 20.0 25.2 38.8 101.9 96.7 333.3
07/05 22:30 18.7 56 8.96 9.8 2 7 1017.5 0 20.1 25.2 39.0 102.3 97.2 335.0
07/05 22:20 19.5 49 8.22 8.5 6 7 1017.4 0 18.5 23.9 35.8 93.9 87.2 299.9
07/05 22:10 20 46 7.95 8 11 15 1017.4 0 17.9 23.4 34.6 90.7 83.4 286.7
07/05 22:00 20.2 45 7.87 7.9 11 15 1017.4 0 17.7 23.2 34.3 89.7 82.3 282.7
07/05 21:50 20.2 46 8.04 8.2 11 13 1017.2 0 18.1 23.4 34.9 91.3 84.3 289.7
07/05 21:40 19.5 53 8.89 9.7 11 13 1017.2 0 19.9 24.9 38.3 100.5 95.4 328.6
07/05 21:30 19.3 56 9.29 10.3 2 6 1017.3 0 20.8 25.6 39.9 104.8 100.6 346.9
07/05 21:20 20 52 8.99 9.9 6 9 1017 0 20.1 24.9 38.4 100.9 96.0 330.8
07/05 21:10 20.6 50 8.95 9.8 7 7 1017 0 20.0 24.7 38.0 99.7 94.8 326.6
07/05 21:00 21 47 8.61 9.3 13 15 1017.1 0 19.3 24.1 36.6 95.9 90.2 310.6
07/05 20:50 21.2 47 8.71 9.4 13 15 1016.9 0 19.5 24.1 36.8 96.6 91.2 314.0
07/05 20:40 21.5 46 8.67 9.4 9 15 1016.8 0 19.4 24.0 36.6 95.9 90.3 311.1
07/05 20:30 21.7 45 8.58 9.3 13 19 1016.8 0 19.2 23.8 36.1 94.8 89.0 306.6
07/05 20:20 21.8 45 8.63 9.3 11 15 1016.6 0 19.3 23.9 36.3 95.1 89.5 308.3
07/05 20:10 22 46 8.93 9.9 11 15 1016.6 0 19.9 24.2 37.3 97.8 92.8 320.0
07/05 20:00 21.9 49 9.45 10.7 11 17 1016.7 0 21.0 25.1 39.2 103.0 99.3 342.5

Last Refresh: 08-May-2026 12:08:16

Bureau of Meteorology